createdAt,value
2018-06-08T00:02:25.773Z,21.50
2018-06-08T00:04:53.993Z,21.40
2018-06-08T00:07:22.177Z,21.50
2018-06-08T00:09:50.408Z,21.40
2018-06-08T00:12:18.606Z,21.40
2018-06-08T00:14:46.793Z,21.40
2018-06-08T00:17:15.001Z,21.40
2018-06-08T00:19:43.207Z,21.30
2018-06-08T00:22:11.405Z,21.30
2018-06-08T00:24:39.613Z,21.40
2018-06-08T00:27:07.789Z,21.40
2018-06-08T00:29:35.977Z,21.30
2018-06-08T00:32:04.193Z,21.30
2018-06-08T00:34:32.451Z,21.30
2018-06-08T00:37:00.641Z,21.40
2018-06-08T00:39:28.845Z,21.40
2018-06-08T00:41:57.073Z,21.40
2018-06-08T00:46:53.232Z,21.30
2018-06-08T00:49:21.416Z,21.30
2018-06-08T00:51:49.625Z,21.30
2018-06-08T00:54:17.835Z,21.30
2018-06-08T00:56:57.442Z,21.30
2018-06-08T00:59:25.638Z,21.20
2018-06-08T01:01:53.854Z,21.20
2018-06-08T01:04:22.070Z,21.30
2018-06-08T01:06:50.287Z,21.30
2018-06-08T01:09:18.478Z,21.30
2018-06-08T01:11:46.653Z,21.30
2018-06-08T01:14:14.849Z,21.30
2018-06-08T01:16:43.041Z,21.30
2018-06-08T01:19:11.271Z,21.20
2018-06-08T01:21:39.513Z,21.30
2018-06-08T01:24:07.677Z,21.30
2018-06-08T01:26:35.921Z,21.20
2018-06-08T01:29:04.157Z,21.30
2018-06-08T01:31:32.357Z,21.30
2018-06-08T01:34:00.535Z,21.30
2018-06-08T01:36:28.758Z,21.30
2018-06-08T01:38:56.922Z,21.20
2018-06-08T01:41:25.165Z,21.30
2018-06-08T01:43:53.343Z,21.30
2018-06-08T01:46:21.555Z,21.30
2018-06-08T01:48:49.733Z,21.30
2018-06-08T01:53:45.957Z,21.30
2018-06-08T01:56:14.145Z,21.30
2018-06-08T01:58:42.354Z,21.20
2018-06-08T02:01:10.541Z,21.20
2018-06-08T02:03:38.765Z,21.20
2018-06-08T02:06:06.977Z,21.20
2018-06-08T02:08:36.316Z,21.20
2018-06-08T02:11:05.715Z,21.20
2018-06-08T02:13:33.940Z,21.10
2018-06-08T02:16:02.143Z,21.20
2018-06-08T02:18:30.425Z,21.20
2018-06-08T02:20:58.575Z,21.20
2018-06-08T02:23:26.782Z,21.20
2018-06-08T02:25:55.038Z,21.10
2018-06-08T02:28:23.250Z,21.10
2018-06-08T02:30:51.430Z,21.10
2018-06-08T02:33:19.586Z,21.10
2018-06-08T02:35:47.806Z,21.20
2018-06-08T02:40:44.114Z,21.20
2018-06-08T02:43:12.291Z,21.20
2018-06-08T02:45:40.530Z,21.20
2018-06-08T02:48:09.315Z,21.20
2018-06-08T02:50:37.531Z,21.20
2018-06-08T02:53:05.729Z,21.20
2018-06-08T02:55:33.923Z,21.20
2018-06-08T02:58:02.062Z,21.20
2018-06-08T03:00:30.242Z,21.20
2018-06-08T03:02:58.398Z,21.20
2018-06-08T03:05:26.671Z,21.20
2018-06-08T03:07:54.770Z,21.20
2018-06-08T03:10:22.929Z,21.20
2018-06-08T03:12:51.078Z,21.10
2018-06-08T03:15:19.254Z,21.10
2018-06-08T03:17:47.930Z,21.10
2018-06-08T03:20:16.181Z,21.10
2018-06-08T03:22:44.365Z,21.10
2018-06-08T03:25:12.586Z,21.10
2018-06-08T03:27:40.761Z,21.10
2018-06-08T03:30:08.982Z,21.10
2018-06-08T03:32:37.169Z,21.10
2018-06-08T03:35:05.432Z,21.10
2018-06-08T03:37:33.801Z,21.10
2018-06-08T03:40:02.017Z,21.10
2018-06-08T03:42:30.227Z,21.10
2018-06-08T03:44:58.437Z,21.10
2018-06-08T03:47:26.662Z,21.10
2018-06-08T03:49:54.853Z,21.10
2018-06-08T03:52:23.020Z,21.10
2018-06-08T03:54:51.246Z,21.10
2018-06-08T03:57:19.446Z,21.10
2018-06-08T03:59:47.657Z,21.10
2018-06-08T04:02:15.909Z,21.10
2018-06-08T04:04:44.119Z,21.10
2018-06-08T04:07:12.266Z,21.10
2018-06-08T04:09:40.474Z,21.20
2018-06-08T04:12:08.657Z,21.30
2018-06-08T04:14:36.849Z,21.20
2018-06-08T04:17:05.038Z,21.20
2018-06-08T04:19:33.202Z,21.20
2018-06-08T04:22:01.450Z,21.10
2018-06-08T04:24:29.678Z,21.10
2018-06-08T04:26:57.885Z,21.20
2018-06-08T04:29:26.073Z,21.20
2018-06-08T04:31:54.293Z,21.20
2018-06-08T04:36:50.425Z,21.10
2018-06-08T04:39:18.610Z,21.00
2018-06-08T04:41:46.818Z,21.10
2018-06-08T04:44:15.046Z,21.10
2018-06-08T04:46:43.209Z,21.10
2018-06-08T04:49:11.422Z,21.10
2018-06-08T04:51:39.632Z,21.10
2018-06-08T04:54:07.837Z,21.00
2018-06-08T04:56:35.993Z,21.00
2018-06-08T04:59:04.158Z,21.10
2018-06-08T05:01:32.387Z,21.10
2018-06-08T05:04:00.581Z,21.10
2018-06-08T05:06:28.789Z,21.10
2018-06-08T05:08:56.983Z,21.20
2018-06-08T05:11:25.182Z,21.10
2018-06-08T05:13:53.406Z,21.10
2018-06-08T05:16:21.590Z,21.10
2018-06-08T05:18:49.761Z,21.10
2018-06-08T05:21:18.542Z,21.10
2018-06-08T05:23:46.782Z,21.20
2018-06-08T05:26:15.014Z,21.10
2018-06-08T05:28:43.213Z,21.10
2018-06-08T05:31:11.361Z,21.10
2018-06-08T05:33:39.610Z,21.10
2018-06-08T05:36:07.847Z,21.20
2018-06-08T05:38:36.049Z,21.10
2018-06-08T05:41:04.214Z,21.20
2018-06-08T05:43:32.444Z,21.10
2018-06-08T05:46:00.618Z,21.10
2018-06-08T05:48:28.816Z,21.10
2018-06-08T05:50:56.987Z,21.10
2018-06-08T05:53:25.205Z,21.10
2018-06-08T05:55:53.382Z,21.10
2018-06-08T05:58:21.621Z,21.10
2018-06-08T06:00:49.798Z,21.10
2018-06-08T06:03:17.990Z,21.20
2018-06-08T06:05:46.162Z,21.20
2018-06-08T06:08:14.367Z,21.20
2018-06-08T06:10:42.531Z,21.30
2018-06-08T06:13:10.829Z,21.30
2018-06-08T06:15:39.029Z,21.30
2018-06-08T06:18:07.857Z,21.30
2018-06-08T06:20:36.046Z,21.40
2018-06-08T06:23:04.221Z,21.40
2018-06-08T06:25:32.442Z,21.40
2018-06-08T06:28:00.640Z,21.40
2018-06-08T06:30:28.841Z,21.50
2018-06-08T06:32:57.066Z,21.60
2018-06-08T06:35:25.278Z,21.60
2018-06-08T06:37:53.468Z,21.60
2018-06-08T06:40:21.706Z,21.50
2018-06-08T06:45:17.905Z,21.60
2018-06-08T06:47:46.049Z,21.60
2018-06-08T06:50:14.271Z,21.70
2018-06-08T06:52:42.438Z,21.60
2018-06-08T06:55:10.598Z,21.70
2018-06-08T06:57:38.805Z,21.70
2018-06-08T07:00:06.969Z,21.70
2018-06-08T07:02:35.178Z,21.70
2018-06-08T07:05:03.315Z,21.70
2018-06-08T07:07:31.451Z,21.80
2018-06-08T07:10:00.593Z,21.70
2018-06-08T07:12:28.833Z,21.80
2018-06-08T07:14:57.070Z,21.90
2018-06-08T07:17:25.378Z,21.80
2018-06-08T07:19:53.569Z,21.80
2018-06-08T07:22:21.750Z,21.80
2018-06-08T07:24:50.009Z,21.90
2018-06-08T07:27:18.206Z,21.80
2018-06-08T07:29:46.438Z,21.90
2018-06-08T07:32:14.595Z,21.90
2018-06-08T07:34:42.771Z,21.90
2018-06-08T07:37:10.946Z,21.90
2018-06-08T07:39:39.177Z,21.90
2018-06-08T07:42:07.402Z,21.90
2018-06-08T07:44:35.526Z,22.00
2018-06-08T07:47:03.754Z,21.90
2018-06-08T07:49:31.941Z,22.00
2018-06-08T07:52:00.161Z,21.90
2018-06-08T07:54:28.381Z,22.00
2018-06-08T07:56:57.038Z,22.00
2018-06-08T07:59:25.261Z,22.00
2018-06-08T08:01:53.450Z,22.00
2018-06-08T08:04:21.642Z,22.00
2018-06-08T08:06:49.801Z,22.00
2018-06-08T08:09:18.014Z,22.00
2018-06-08T08:11:46.173Z,22.00
2018-06-08T08:14:14.306Z,22.00
2018-06-08T08:16:42.543Z,22.00
2018-06-08T08:19:10.720Z,22.00
2018-06-08T08:21:38.934Z,22.10
2018-06-08T08:24:07.173Z,22.00
2018-06-08T08:26:35.369Z,22.10
2018-06-08T08:29:03.573Z,22.10
2018-06-08T08:31:31.749Z,22.10
2018-06-08T08:33:59.950Z,22.10
2018-06-08T08:36:28.174Z,22.10
2018-06-08T08:38:56.379Z,22.10
2018-06-08T08:41:24.591Z,22.20
2018-06-08T08:43:52.764Z,22.10
2018-06-08T08:46:20.973Z,22.20
2018-06-08T08:48:49.193Z,22.20
2018-06-08T08:51:17.435Z,22.20
2018-06-08T08:53:45.561Z,22.20
2018-06-08T08:56:13.811Z,22.20
2018-06-08T08:58:42.014Z,22.20
2018-06-08T09:01:10.234Z,22.30
2018-06-08T09:03:38.441Z,22.30
2018-06-08T09:06:06.570Z,22.30
2018-06-08T09:08:34.789Z,22.30
2018-06-08T09:11:02.943Z,22.30
2018-06-08T09:13:31.098Z,22.30
2018-06-08T09:15:59.333Z,22.30
2018-06-08T09:18:27.633Z,22.30
2018-06-08T09:20:55.802Z,22.30
2018-06-08T09:23:23.962Z,22.30
2018-06-08T09:25:52.278Z,22.30
2018-06-08T09:28:20.541Z,22.40
2018-06-08T09:30:48.727Z,22.40
2018-06-08T09:33:16.902Z,22.50
2018-06-08T09:35:45.066Z,22.50
2018-06-08T09:38:13.250Z,22.50
2018-06-08T09:40:41.511Z,22.50
2018-06-08T09:43:09.762Z,22.50
2018-06-08T09:45:37.937Z,22.50
2018-06-08T09:48:06.177Z,22.50
2018-06-08T09:50:34.366Z,22.50
2018-06-08T09:53:03.149Z,22.60
2018-06-08T09:55:31.353Z,22.60
2018-06-08T09:57:59.574Z,22.60
2018-06-08T10:00:33.065Z,22.60
2018-06-08T10:03:01.241Z,22.60
2018-06-08T10:05:29.411Z,22.70
2018-06-08T10:07:57.600Z,22.70
2018-06-08T10:10:25.806Z,22.70
2018-06-08T10:12:54.077Z,22.70
2018-06-08T10:15:22.321Z,22.70
2018-06-08T10:17:50.501Z,22.70
2018-06-08T10:20:18.720Z,22.70
2018-06-08T10:22:46.856Z,22.80
2018-06-08T10:25:15.062Z,22.80
2018-06-08T10:27:43.305Z,22.80
2018-06-08T10:30:11.461Z,22.80
2018-06-08T10:32:39.648Z,22.90
2018-06-08T10:35:08.446Z,22.90
2018-06-08T10:37:36.653Z,22.90
2018-06-08T10:40:04.901Z,22.90
2018-06-08T10:42:33.094Z,23.00
2018-06-08T10:45:01.246Z,23.00
2018-06-08T10:47:29.466Z,23.00
2018-06-08T10:49:57.643Z,23.00
2018-06-08T10:52:25.880Z,23.10
2018-06-08T10:54:54.103Z,23.10
2018-06-08T10:57:22.312Z,23.10
2018-06-08T10:59:50.478Z,23.10
2018-06-08T11:04:46.602Z,23.20
2018-06-08T11:07:14.734Z,23.20
2018-06-08T11:09:42.961Z,23.20
2018-06-08T11:12:11.191Z,23.20
2018-06-08T11:14:39.393Z,23.30
2018-06-08T11:17:07.542Z,23.30
2018-06-08T11:19:35.726Z,23.20
2018-06-08T11:22:03.882Z,23.20
2018-06-08T11:24:32.114Z,23.30
2018-06-08T11:27:00.413Z,23.30
2018-06-08T11:29:28.522Z,23.30
2018-06-08T11:31:56.698Z,23.30
2018-06-08T11:34:24.938Z,23.40
2018-06-08T11:36:53.162Z,23.40
2018-06-08T11:41:49.381Z,23.50
2018-06-08T11:44:17.560Z,23.50
2018-06-08T11:46:45.742Z,23.50
2018-06-08T11:49:13.957Z,23.50
2018-06-08T11:51:42.129Z,23.50
2018-06-08T11:54:10.322Z,23.50
2018-06-08T11:56:38.728Z,23.60
2018-06-08T11:59:06.972Z,23.60
2018-06-08T12:01:35.297Z,23.70
2018-06-08T12:04:03.541Z,23.70
2018-06-08T12:06:31.773Z,23.70
2018-06-08T12:09:00.016Z,23.70
2018-06-08T12:11:28.178Z,23.70
2018-06-08T12:13:56.385Z,23.80
2018-06-08T12:16:24.538Z,23.80
2018-06-08T12:18:52.716Z,23.80
2018-06-08T12:21:21.011Z,23.90
2018-06-08T12:23:49.121Z,23.90
2018-06-08T12:26:17.313Z,23.90
2018-06-08T12:28:45.526Z,23.90
2018-06-08T12:31:13.720Z,23.90
2018-06-08T12:33:41.949Z,23.90
2018-06-08T12:36:10.173Z,23.90
2018-06-08T12:38:38.306Z,24.00
2018-06-08T12:41:06.585Z,24.00
2018-06-08T12:43:34.768Z,24.00
2018-06-08T12:46:02.903Z,24.00
2018-06-08T12:48:31.232Z,24.00
2018-06-08T12:50:59.422Z,24.00
2018-06-08T12:53:27.601Z,24.10
2018-06-08T12:58:23.966Z,24.10
2018-06-08T13:00:52.189Z,24.10
2018-06-08T13:03:20.387Z,24.10
2018-06-08T13:05:48.546Z,24.10
2018-06-08T13:08:16.685Z,24.10
2018-06-08T13:10:44.895Z,24.10
2018-06-08T13:13:13.082Z,24.10
2018-06-08T13:15:41.286Z,24.10
2018-06-08T13:18:09.481Z,24.10
2018-06-08T13:20:37.670Z,24.10
2018-06-08T13:23:05.848Z,24.00
2018-06-08T13:25:34.069Z,24.00
2018-06-08T13:28:02.284Z,24.00
2018-06-08T13:30:30.513Z,24.00
2018-06-08T13:32:58.785Z,23.90
2018-06-08T13:35:26.894Z,23.90
2018-06-08T13:37:55.166Z,23.90
2018-06-08T13:40:23.346Z,24.00
2018-06-08T13:42:51.509Z,24.00
2018-06-08T13:45:19.721Z,24.00
2018-06-08T13:47:48.016Z,24.00
2018-06-08T13:50:16.190Z,24.00
2018-06-08T13:55:12.302Z,24.00
2018-06-08T13:57:40.501Z,24.00
2018-06-08T14:00:08.745Z,23.90
2018-06-08T14:02:36.962Z,24.00
2018-06-08T14:05:05.110Z,24.00
2018-06-08T14:07:33.316Z,24.00
2018-06-08T14:12:29.464Z,23.90
2018-06-08T14:14:57.658Z,23.90
2018-06-08T14:17:26.454Z,23.90
2018-06-08T14:19:54.679Z,23.90
2018-06-08T14:22:22.879Z,23.90
2018-06-08T14:24:51.686Z,23.90
2018-06-08T14:27:19.915Z,23.90
2018-06-08T14:29:48.132Z,23.90
2018-06-08T14:32:16.293Z,23.90
2018-06-08T14:34:44.486Z,23.90
2018-06-08T14:37:12.818Z,23.90
2018-06-08T14:39:41.027Z,23.90
2018-06-08T14:42:09.234Z,23.90
2018-06-08T14:44:37.454Z,23.90
2018-06-08T14:47:05.609Z,23.90
2018-06-08T14:49:33.781Z,23.90
2018-06-08T14:52:02.006Z,23.80
2018-06-08T14:54:30.199Z,23.80
2018-06-08T14:56:58.361Z,23.80
2018-06-08T14:59:26.642Z,23.80
2018-06-08T15:01:54.818Z,23.70
2018-06-08T15:04:23.042Z,23.70
2018-06-08T15:06:51.186Z,23.70
2018-06-08T15:09:19.389Z,23.70
2018-06-08T15:11:47.558Z,23.70
2018-06-08T15:14:15.798Z,23.70
2018-06-08T15:16:44.023Z,23.70
2018-06-08T15:19:13.169Z,23.70
2018-06-08T15:21:41.521Z,23.70
2018-06-08T15:24:10.567Z,23.70
2018-06-08T15:26:40.574Z,23.70
2018-06-08T15:29:08.697Z,23.70
2018-06-08T15:31:38.526Z,23.70
2018-06-08T15:34:06.791Z,23.70
2018-06-08T15:36:34.937Z,23.70
2018-06-08T15:39:04.401Z,23.70
2018-06-08T15:41:32.549Z,23.70
2018-06-08T15:44:00.801Z,23.70
2018-06-08T15:46:28.996Z,23.70
2018-06-08T15:48:57.233Z,23.70
2018-06-08T15:51:25.453Z,23.70
2018-06-08T15:53:53.638Z,23.70
2018-06-08T15:56:22.214Z,23.70
2018-06-08T15:58:50.402Z,23.70
2018-06-08T16:01:18.667Z,23.70
2018-06-08T16:03:46.910Z,23.70
2018-06-08T16:06:15.141Z,23.70
2018-06-08T16:08:43.313Z,23.70
2018-06-08T16:11:11.554Z,23.70
2018-06-08T16:13:39.766Z,23.70
2018-06-08T16:16:08.030Z,23.70
2018-06-08T16:18:36.322Z,23.70
2018-06-08T16:21:04.558Z,23.70
2018-06-08T16:23:32.773Z,23.70
2018-06-08T16:26:00.981Z,23.70
2018-06-08T16:28:29.838Z,23.70
2018-06-08T16:30:58.639Z,23.70
2018-06-08T16:33:26.806Z,23.70
2018-06-08T16:35:54.989Z,23.70
2018-06-08T16:38:23.222Z,23.70
2018-06-08T16:40:51.391Z,23.70
2018-06-08T16:43:19.673Z,23.70
2018-06-08T16:45:47.840Z,23.70
2018-06-08T16:48:16.058Z,23.60
2018-06-08T16:50:44.962Z,23.70
2018-06-08T16:53:13.105Z,23.70
2018-06-08T16:55:41.297Z,23.60
2018-06-08T16:58:09.503Z,23.60
2018-06-08T17:00:37.681Z,23.60
2018-06-08T17:03:05.917Z,23.60
2018-06-08T17:05:34.114Z,23.50
2018-06-08T17:08:02.327Z,23.60
2018-06-08T17:10:30.588Z,23.50
2018-06-08T17:12:58.914Z,23.50
2018-06-08T17:15:27.069Z,23.50
2018-06-08T17:17:55.406Z,23.50
2018-06-08T17:20:23.553Z,23.50
2018-06-08T17:22:51.737Z,23.50
2018-06-08T17:25:19.913Z,23.50
2018-06-08T17:27:48.106Z,23.50
2018-06-08T17:30:16.310Z,23.50
2018-06-08T17:32:44.566Z,23.50
2018-06-08T17:35:12.754Z,23.50
2018-06-08T17:37:40.903Z,23.50
2018-06-08T17:40:09.107Z,23.50
2018-06-08T17:42:37.304Z,23.50
2018-06-08T17:45:05.579Z,23.50
2018-06-08T17:47:33.762Z,23.50
2018-06-08T17:50:01.996Z,23.50
2018-06-08T17:52:30.188Z,23.50
2018-06-08T17:54:58.388Z,23.50
2018-06-08T17:57:26.546Z,23.40
2018-06-08T17:59:55.441Z,23.40
2018-06-08T18:02:24.257Z,23.40
2018-06-08T18:04:52.467Z,23.40
2018-06-08T18:07:20.691Z,23.40
2018-06-08T18:09:48.904Z,23.40
2018-06-08T18:12:17.066Z,23.40
2018-06-08T18:14:45.246Z,23.40
2018-06-08T18:17:13.465Z,23.40
2018-06-08T18:19:41.691Z,23.40
2018-06-08T18:22:09.924Z,23.40
2018-06-08T18:24:38.135Z,23.40
2018-06-08T18:27:06.389Z,23.40
2018-06-08T18:29:34.578Z,23.30
2018-06-08T18:32:02.802Z,23.30
2018-06-08T18:34:30.965Z,23.30
2018-06-08T18:36:59.266Z,23.30
2018-06-08T18:39:27.442Z,23.30
2018-06-08T18:44:23.627Z,23.30
2018-06-08T18:46:51.882Z,23.30
2018-06-08T18:49:20.113Z,23.30
2018-06-08T18:51:48.306Z,23.20
2018-06-08T18:54:16.506Z,23.20
2018-06-08T18:56:44.701Z,23.20
2018-06-08T18:59:12.924Z,23.20
2018-06-08T19:01:41.137Z,23.20
2018-06-08T19:04:09.341Z,23.20
2018-06-08T19:06:37.542Z,23.20
2018-06-08T19:09:08.180Z,23.10
2018-06-08T19:11:36.403Z,23.10
2018-06-08T19:14:04.605Z,23.10
2018-06-08T19:16:32.827Z,23.10
2018-06-08T19:19:00.933Z,23.10
2018-06-08T19:21:29.129Z,23.10
2018-06-08T19:23:57.790Z,23.10
2018-06-08T19:26:26.038Z,23.00
2018-06-08T19:28:54.222Z,23.00
2018-06-08T19:31:22.417Z,23.00
2018-06-08T19:33:50.609Z,23.00
2018-06-08T19:36:18.788Z,23.00
2018-06-08T19:38:46.989Z,23.00
2018-06-08T19:41:15.210Z,23.00
2018-06-08T19:43:43.429Z,23.00
2018-06-08T19:46:11.634Z,23.00
2018-06-08T19:48:39.775Z,23.00
2018-06-08T19:51:08.005Z,23.00
2018-06-08T19:53:36.186Z,22.90
2018-06-08T19:56:04.385Z,22.90
2018-06-08T19:58:32.674Z,22.90
2018-06-08T20:01:00.768Z,22.90
2018-06-08T20:05:56.957Z,22.90
2018-06-08T20:08:25.153Z,22.90
2018-06-08T20:10:53.331Z,22.90
2018-06-08T20:13:22.465Z,22.80
2018-06-08T20:15:50.758Z,22.80
2018-06-08T20:18:18.949Z,22.90
2018-06-08T20:20:47.547Z,22.90
2018-06-08T20:23:15.803Z,22.80
2018-06-08T20:25:46.901Z,22.80
2018-06-08T20:28:16.295Z,22.80
2018-06-08T20:30:46.349Z,22.80
2018-06-08T20:33:25.572Z,22.70
2018-06-08T20:35:53.825Z,22.70
2018-06-08T20:38:28.883Z,22.70
2018-06-08T20:40:57.786Z,22.70
2018-06-08T20:43:30.742Z,22.70
2018-06-08T20:46:05.210Z,22.70
2018-06-08T20:48:33.558Z,22.70
2018-06-08T20:51:03.808Z,22.70
2018-06-08T20:53:35.297Z,22.70
2018-06-08T20:56:05.965Z,22.60
2018-06-08T20:58:35.916Z,22.70
2018-06-08T21:01:05.513Z,22.60
2018-06-08T21:03:35.282Z,22.60
2018-06-08T21:06:04.827Z,22.60
2018-06-08T21:08:36.062Z,22.60
2018-06-08T21:11:05.567Z,22.60
2018-06-08T21:13:35.560Z,22.60
2018-06-08T21:16:05.392Z,22.60
2018-06-08T21:18:35.068Z,22.60
2018-06-08T21:21:05.312Z,22.60
2018-06-08T21:23:34.668Z,22.60
2018-06-08T21:26:04.251Z,22.60
2018-06-08T21:28:34.118Z,22.60
2018-06-08T21:31:03.935Z,22.60
2018-06-08T21:33:33.500Z,22.60
2018-06-08T21:36:03.387Z,22.60
2018-06-08T21:38:33.888Z,22.60
2018-06-08T21:41:03.787Z,22.60
2018-06-08T21:43:33.407Z,22.60
2018-06-08T21:46:03.348Z,22.60
2018-06-08T21:48:33.051Z,22.60
2018-06-08T21:51:03.536Z,22.60
2018-06-08T21:53:33.354Z,22.60
2018-06-08T21:56:03.049Z,22.70
2018-06-08T21:58:32.826Z,22.60
2018-06-08T22:01:02.930Z,22.60
2018-06-08T22:03:32.851Z,22.70
2018-06-08T22:06:02.602Z,22.60
2018-06-08T22:08:32.474Z,22.60
2018-06-08T22:11:01.494Z,22.60
2018-06-08T22:13:31.441Z,22.60
2018-06-08T22:16:00.734Z,22.60
2018-06-08T22:18:31.217Z,22.60
2018-06-08T22:21:01.112Z,22.60
2018-06-08T22:23:29.355Z,22.60
2018-06-08T22:25:57.621Z,22.60
2018-06-08T22:28:25.818Z,22.60
2018-06-08T22:30:53.981Z,22.60
2018-06-08T22:33:22.166Z,22.60
2018-06-08T22:35:50.431Z,22.60
2018-06-08T22:38:18.723Z,22.60
2018-06-08T22:43:14.897Z,22.60
2018-06-08T22:45:43.121Z,22.60
2018-06-08T22:48:11.279Z,22.60
2018-06-08T22:50:39.441Z,22.60
2018-06-08T22:53:07.571Z,22.60
2018-06-08T22:55:35.797Z,22.60
2018-06-08T22:58:04.046Z,22.60
2018-06-08T23:00:32.290Z,22.60
2018-06-08T23:03:00.458Z,22.60
2018-06-08T23:05:28.660Z,22.50
2018-06-08T23:07:56.869Z,22.50
2018-06-08T23:10:25.055Z,22.50
2018-06-08T23:12:53.803Z,22.50
2018-06-08T23:15:22.049Z,22.50
2018-06-08T23:17:50.252Z,22.50
2018-06-08T23:20:18.470Z,22.50
2018-06-08T23:22:47.346Z,22.50
2018-06-08T23:25:15.562Z,22.50
2018-06-08T23:27:43.738Z,22.50
2018-06-08T23:30:12.002Z,22.40
2018-06-08T23:32:40.226Z,22.40
2018-06-08T23:35:08.427Z,22.50
2018-06-08T23:37:36.565Z,22.40
2018-06-08T23:40:04.821Z,22.50
2018-06-08T23:42:33.007Z,22.40
2018-06-08T23:45:01.713Z,22.40
2018-06-08T23:47:29.927Z,22.40
2018-06-08T23:49:59.173Z,22.40
2018-06-08T23:52:27.369Z,22.30
2018-06-08T23:54:55.577Z,22.40
2018-06-08T23:57:23.774Z,22.30
2018-06-08T23:59:51.990Z,22.30
